sensor_id;sensor_type;location;lat;lon;timestamp;P1;durP1;ratioP1;P2;durP2;ratioP2
6207;SDS011;3137;51.550;7.060;2022-07-06T00:01:48;4.00;;;3.80;;
6207;SDS011;3137;51.550;7.060;2022-07-06T00:04:17;3.53;;;3.43;;
6207;SDS011;3137;51.550;7.060;2022-07-06T00:06:44;4.20;;;4.10;;
6207;SDS011;3137;51.550;7.060;2022-07-06T00:09:11;4.67;;;4.57;;
6207;SDS011;3137;51.550;7.060;2022-07-06T00:11:38;4.17;;;3.97;;
6207;SDS011;3137;51.550;7.060;2022-07-06T00:14:04;4.90;;;4.40;;
6207;SDS011;3137;51.550;7.060;2022-07-06T00:16:31;3.80;;;3.70;;
6207;SDS011;3137;51.550;7.060;2022-07-06T00:18:58;4.77;;;4.23;;
6207;SDS011;3137;51.550;7.060;2022-07-06T00:21:24;4.40;;;4.03;;
6207;SDS011;3137;51.550;7.060;2022-07-06T00:23:51;4.03;;;3.87;;
6207;SDS011;3137;51.550;7.060;2022-07-06T00:26:18;4.63;;;4.53;;
6207;SDS011;3137;51.550;7.060;2022-07-06T00:28:45;4.33;;;4.23;;
6207;SDS011;3137;51.550;7.060;2022-07-06T00:31:11;3.73;;;3.73;;
6207;SDS011;3137;51.550;7.060;2022-07-06T00:33:38;4.40;;;4.30;;
6207;SDS011;3137;51.550;7.060;2022-07-06T00:36:04;3.57;;;3.37;;
6207;SDS011;3137;51.550;7.060;2022-07-06T00:38:31;3.97;;;3.97;;
6207;SDS011;3137;51.550;7.060;2022-07-06T00:40:58;3.57;;;3.47;;
6207;SDS011;3137;51.550;7.060;2022-07-06T00:43:24;3.97;;;3.97;;
6207;SDS011;3137;51.550;7.060;2022-07-06T00:45:51;4.37;;;3.93;;
6207;SDS011;3137;51.550;7.060;2022-07-06T00:48:17;3.87;;;3.87;;
6207;SDS011;3137;51.550;7.060;2022-07-06T00:50:44;4.53;;;4.10;;
6207;SDS011;3137;51.550;7.060;2022-07-06T00:53:11;3.33;;;3.33;;
6207;SDS011;3137;51.550;7.060;2022-07-06T00:55:39;3.77;;;3.63;;
6207;SDS011;3137;51.550;7.060;2022-07-06T00:58:06;3.97;;;3.90;;
6207;SDS011;3137;51.550;7.060;2022-07-06T01:00:34;3.73;;;3.73;;
6207;SDS011;3137;51.550;7.060;2022-07-06T01:03:01;3.50;;;3.50;;
6207;SDS011;3137;51.550;7.060;2022-07-06T01:05:28;4.17;;;3.57;;
6207;SDS011;3137;51.550;7.060;2022-07-06T01:07:55;3.47;;;3.37;;
6207;SDS011;3137;51.550;7.060;2022-07-06T01:10:22;3.60;;;3.50;;
6207;SDS011;3137;51.550;7.060;2022-07-06T01:12:50;3.67;;;3.57;;
6207;SDS011;3137;51.550;7.060;2022-07-06T01:17:48;3.77;;;3.67;;
6207;SDS011;3137;51.550;7.060;2022-07-06T01:20:20;4.00;;;3.80;;
6207;SDS011;3137;51.550;7.060;2022-07-06T01:22:48;4.47;;;4.23;;
6207;SDS011;3137;51.550;7.060;2022-07-06T01:25:15;3.90;;;3.90;;
6207;SDS011;3137;51.550;7.060;2022-07-06T01:27:43;5.10;;;4.00;;
6207;SDS011;3137;51.550;7.060;2022-07-06T01:30:17;3.50;;;3.50;;
6207;SDS011;3137;51.550;7.060;2022-07-06T01:32:45;3.60;;;3.50;;
6207;SDS011;3137;51.550;7.060;2022-07-06T01:35:14;4.03;;;3.73;;
6207;SDS011;3137;51.550;7.060;2022-07-06T01:37:41;3.87;;;3.77;;
6207;SDS011;3137;51.550;7.060;2022-07-06T01:40:08;3.47;;;3.30;;
6207;SDS011;3137;51.550;7.060;2022-07-06T01:42:36;3.60;;;3.57;;
6207;SDS011;3137;51.550;7.060;2022-07-06T01:45:04;4.27;;;4.07;;
6207;SDS011;3137;51.550;7.060;2022-07-06T01:47:31;3.70;;;3.70;;
6207;SDS011;3137;51.550;7.060;2022-07-06T01:49:59;3.83;;;3.53;;
6207;SDS011;3137;51.550;7.060;2022-07-06T01:52:28;3.40;;;3.27;;
6207;SDS011;3137;51.550;7.060;2022-07-06T01:54:55;3.23;;;3.23;;
6207;SDS011;3137;51.550;7.060;2022-07-06T01:57:22;3.20;;;3.20;;
6207;SDS011;3137;51.550;7.060;2022-07-06T01:59:49;3.40;;;3.23;;
6207;SDS011;3137;51.550;7.060;2022-07-06T02:02:16;3.67;;;3.40;;
6207;SDS011;3137;51.550;7.060;2022-07-06T02:04:44;3.50;;;3.50;;
6207;SDS011;3137;51.550;7.060;2022-07-06T02:07:10;3.40;;;3.40;;
6207;SDS011;3137;51.550;7.060;2022-07-06T02:09:37;4.03;;;3.93;;
6207;SDS011;3137;51.550;7.060;2022-07-06T02:12:03;3.23;;;3.23;;
6207;SDS011;3137;51.550;7.060;2022-07-06T02:14:30;3.50;;;3.50;;
6207;SDS011;3137;51.550;7.060;2022-07-06T02:16:57;3.60;;;3.60;;
6207;SDS011;3137;51.550;7.060;2022-07-06T02:19:23;4.10;;;4.00;;
6207;SDS011;3137;51.550;7.060;2022-07-06T02:21:50;3.43;;;3.43;;
6207;SDS011;3137;51.550;7.060;2022-07-06T02:24:16;3.90;;;3.60;;
6207;SDS011;3137;51.550;7.060;2022-07-06T02:26:43;4.00;;;4.00;;
6207;SDS011;3137;51.550;7.060;2022-07-06T02:29:09;4.47;;;4.37;;
6207;SDS011;3137;51.550;7.060;2022-07-06T02:31:35;4.17;;;4.07;;
6207;SDS011;3137;51.550;7.060;2022-07-06T02:34:03;4.20;;;4.10;;
6207;SDS011;3137;51.550;7.060;2022-07-06T02:36:31;4.37;;;4.37;;
6207;SDS011;3137;51.550;7.060;2022-07-06T02:38:58;4.57;;;4.50;;
6207;SDS011;3137;51.550;7.060;2022-07-06T02:41:26;3.53;;;3.53;;
6207;SDS011;3137;51.550;7.060;2022-07-06T02:43:53;4.17;;;4.00;;
6207;SDS011;3137;51.550;7.060;2022-07-06T02:46:20;3.57;;;3.47;;
6207;SDS011;3137;51.550;7.060;2022-07-06T02:48:46;4.33;;;4.03;;
6207;SDS011;3137;51.550;7.060;2022-07-06T02:51:13;4.00;;;4.00;;
6207;SDS011;3137;51.550;7.060;2022-07-06T02:53:39;4.30;;;4.20;;
6207;SDS011;3137;51.550;7.060;2022-07-06T02:56:06;4.20;;;4.00;;
6207;SDS011;3137;51.550;7.060;2022-07-06T02:58:33;3.57;;;3.57;;
6207;SDS011;3137;51.550;7.060;2022-07-06T03:01:00;5.00;;;4.00;;
6207;SDS011;3137;51.550;7.060;2022-07-06T03:03:26;4.30;;;4.10;;
6207;SDS011;3137;51.550;7.060;2022-07-06T03:05:53;4.37;;;4.23;;
6207;SDS011;3137;51.550;7.060;2022-07-06T03:08:20;4.30;;;4.20;;
6207;SDS011;3137;51.550;7.060;2022-07-06T03:10:47;3.90;;;3.70;;
6207;SDS011;3137;51.550;7.060;2022-07-06T03:13:15;4.70;;;4.23;;
6207;SDS011;3137;51.550;7.060;2022-07-06T03:15:41;3.77;;;3.77;;
6207;SDS011;3137;51.550;7.060;2022-07-06T03:18:08;4.67;;;4.47;;
6207;SDS011;3137;51.550;7.060;2022-07-06T03:20:35;4.20;;;4.00;;
6207;SDS011;3137;51.550;7.060;2022-07-06T03:23:02;4.53;;;4.27;;
6207;SDS011;3137;51.550;7.060;2022-07-06T03:25:28;4.00;;;3.83;;
6207;SDS011;3137;51.550;7.060;2022-07-06T03:27:55;5.33;;;4.00;;
6207;SDS011;3137;51.550;7.060;2022-07-06T03:30:21;5.00;;;4.80;;
6207;SDS011;3137;51.550;7.060;2022-07-06T03:32:52;4.57;;;4.37;;
6207;SDS011;3137;51.550;7.060;2022-07-06T03:35:19;4.90;;;4.67;;
6207;SDS011;3137;51.550;7.060;2022-07-06T03:37:48;3.90;;;3.70;;
6207;SDS011;3137;51.550;7.060;2022-07-06T03:40:15;3.70;;;3.70;;
6207;SDS011;3137;51.550;7.060;2022-07-06T03:42:44;4.23;;;4.03;;
6207;SDS011;3137;51.550;7.060;2022-07-06T03:45:11;3.97;;;3.77;;
6207;SDS011;3137;51.550;7.060;2022-07-06T03:47:39;3.90;;;3.80;;
6207;SDS011;3137;51.550;7.060;2022-07-06T03:50:05;4.07;;;3.90;;
6207;SDS011;3137;51.550;7.060;2022-07-06T03:52:33;4.27;;;3.97;;
6207;SDS011;3137;51.550;7.060;2022-07-06T03:55:01;5.10;;;4.60;;
6207;SDS011;3137;51.550;7.060;2022-07-06T03:57:29;4.40;;;4.30;;
6207;SDS011;3137;51.550;7.060;2022-07-06T03:59:59;4.47;;;4.27;;
6207;SDS011;3137;51.550;7.060;2022-07-06T04:02:26;4.67;;;4.50;;
6207;SDS011;3137;51.550;7.060;2022-07-06T04:04:53;4.90;;;4.80;;
6207;SDS011;3137;51.550;7.060;2022-07-06T04:07:20;4.10;;;4.10;;
6207;SDS011;3137;51.550;7.060;2022-07-06T04:09:47;4.80;;;4.63;;
6207;SDS011;3137;51.550;7.060;2022-07-06T04:12:13;5.00;;;4.63;;
6207;SDS011;3137;51.550;7.060;2022-07-06T04:14:42;4.57;;;4.40;;
6207;SDS011;3137;51.550;7.060;2022-07-06T04:17:09;4.43;;;4.33;;
6207;SDS011;3137;51.550;7.060;2022-07-06T04:19:55;4.50;;;4.30;;
6207;SDS011;3137;51.550;7.060;2022-07-06T04:22:21;4.97;;;4.63;;
6207;SDS011;3137;51.550;7.060;2022-07-06T04:24:48;4.30;;;4.10;;
6207;SDS011;3137;51.550;7.060;2022-07-06T04:27:14;8.60;;;4.30;;
6207;SDS011;3137;51.550;7.060;2022-07-06T04:29:42;4.20;;;3.90;;
6207;SDS011;3137;51.550;7.060;2022-07-06T04:32:08;3.90;;;3.80;;
6207;SDS011;3137;51.550;7.060;2022-07-06T04:34:35;3.43;;;3.40;;
6207;SDS011;3137;51.550;7.060;2022-07-06T04:37:02;3.80;;;3.43;;
6207;SDS011;3137;51.550;7.060;2022-07-06T04:39:29;3.43;;;3.43;;
6207;SDS011;3137;51.550;7.060;2022-07-06T04:41:57;3.60;;;3.43;;
6207;SDS011;3137;51.550;7.060;2022-07-06T04:44:24;5.53;;;3.67;;
6207;SDS011;3137;51.550;7.060;2022-07-06T04:46:50;5.80;;;3.97;;
6207;SDS011;3137;51.550;7.060;2022-07-06T04:49:17;6.60;;;4.00;;
6207;SDS011;3137;51.550;7.060;2022-07-06T04:51:43;4.33;;;3.97;;
6207;SDS011;3137;51.550;7.060;2022-07-06T04:54:09;3.20;;;3.07;;
6207;SDS011;3137;51.550;7.060;2022-07-06T04:56:36;3.70;;;3.50;;
6207;SDS011;3137;51.550;7.060;2022-07-06T04:59:03;3.80;;;3.70;;
6207;SDS011;3137;51.550;7.060;2022-07-06T05:01:30;5.50;;;3.30;;
6207;SDS011;3137;51.550;7.060;2022-07-06T05:03:56;4.33;;;3.23;;
6207;SDS011;3137;51.550;7.060;2022-07-06T05:06:24;3.43;;;3.33;;
6207;SDS011;3137;51.550;7.060;2022-07-06T05:08:51;4.57;;;3.57;;
6207;SDS011;3137;51.550;7.060;2022-07-06T05:11:19;3.70;;;3.47;;
6207;SDS011;3137;51.550;7.060;2022-07-06T05:13:47;6.80;;;3.83;;
6207;SDS011;3137;51.550;7.060;2022-07-06T05:16:13;4.97;;;3.87;;
6207;SDS011;3137;51.550;7.060;2022-07-06T05:18:40;5.23;;;3.70;;
6207;SDS011;3137;51.550;7.060;2022-07-06T05:21:06;3.23;;;3.23;;
6207;SDS011;3137;51.550;7.060;2022-07-06T05:23:33;3.20;;;3.20;;
6207;SDS011;3137;51.550;7.060;2022-07-06T05:26:00;3.80;;;3.70;;
6207;SDS011;3137;51.550;7.060;2022-07-06T05:28:28;3.80;;;3.60;;
6207;SDS011;3137;51.550;7.060;2022-07-06T05:31:02;3.10;;;3.10;;
6207;SDS011;3137;51.550;7.060;2022-07-06T05:33:29;3.60;;;3.43;;
6207;SDS011;3137;51.550;7.060;2022-07-06T05:35:56;3.47;;;3.37;;
6207;SDS011;3137;51.550;7.060;2022-07-06T05:38:25;4.00;;;3.67;;
6207;SDS011;3137;51.550;7.060;2022-07-06T05:40:53;2.83;;;2.70;;
6207;SDS011;3137;51.550;7.060;2022-07-06T05:43:20;3.47;;;3.37;;
6207;SDS011;3137;51.550;7.060;2022-07-06T05:45:47;7.10;;;4.00;;
6207;SDS011;3137;51.550;7.060;2022-07-06T05:48:16;3.67;;;3.47;;
6207;SDS011;3137;51.550;7.060;2022-07-06T05:51:02;4.07;;;3.97;;
6207;SDS011;3137;51.550;7.060;2022-07-06T05:53:29;6.33;;;2.70;;
6207;SDS011;3137;51.550;7.060;2022-07-06T05:55:56;3.40;;;3.27;;
6207;SDS011;3137;51.550;7.060;2022-07-06T05:58:23;4.40;;;3.40;;
6207;SDS011;3137;51.550;7.060;2022-07-06T06:00:53;4.43;;;2.80;;
6207;SDS011;3137;51.550;7.060;2022-07-06T06:03:19;3.17;;;2.97;;
6207;SDS011;3137;51.550;7.060;2022-07-06T06:05:48;3.30;;;3.00;;
6207;SDS011;3137;51.550;7.060;2022-07-06T06:08:17;2.87;;;2.67;;
6207;SDS011;3137;51.550;7.060;2022-07-06T06:10:43;3.17;;;3.10;;
6207;SDS011;3137;51.550;7.060;2022-07-06T06:13:12;2.90;;;2.80;;
6207;SDS011;3137;51.550;7.060;2022-07-06T06:15:39;2.57;;;2.43;;
6207;SDS011;3137;51.550;7.060;2022-07-06T06:18:06;4.37;;;2.20;;
6207;SDS011;3137;51.550;7.060;2022-07-06T06:20:32;2.47;;;2.47;;
6207;SDS011;3137;51.550;7.060;2022-07-06T06:22:59;2.70;;;2.50;;
6207;SDS011;3137;51.550;7.060;2022-07-06T06:25:33;2.43;;;2.43;;
6207;SDS011;3137;51.550;7.060;2022-07-06T06:28:00;2.30;;;2.27;;
6207;SDS011;3137;51.550;7.060;2022-07-06T06:30:27;2.73;;;2.53;;
6207;SDS011;3137;51.550;7.060;2022-07-06T06:33:09;2.37;;;2.33;;
6207;SDS011;3137;51.550;7.060;2022-07-06T06:35:36;2.50;;;2.40;;
6207;SDS011;3137;51.550;7.060;2022-07-06T06:38:04;2.17;;;2.17;;
6207;SDS011;3137;51.550;7.060;2022-07-06T06:40:31;2.07;;;2.07;;
6207;SDS011;3137;51.550;7.060;2022-07-06T06:42:57;2.67;;;2.00;;
6207;SDS011;3137;51.550;7.060;2022-07-06T06:45:24;4.17;;;1.90;;
6207;SDS011;3137;51.550;7.060;2022-07-06T06:47:50;2.23;;;2.23;;
6207;SDS011;3137;51.550;7.060;2022-07-06T06:50:17;4.80;;;2.20;;
6207;SDS011;3137;51.550;7.060;2022-07-06T06:52:43;2.33;;;2.33;;
6207;SDS011;3137;51.550;7.060;2022-07-06T06:55:10;2.27;;;2.27;;
6207;SDS011;3137;51.550;7.060;2022-07-06T06:57:37;2.07;;;1.80;;
6207;SDS011;3137;51.550;7.060;2022-07-06T07:00:03;2.73;;;2.07;;
6207;SDS011;3137;51.550;7.060;2022-07-06T07:02:31;2.53;;;2.43;;
6207;SDS011;3137;51.550;7.060;2022-07-06T07:04:57;3.13;;;1.97;;
6207;SDS011;3137;51.550;7.060;2022-07-06T07:07:24;2.20;;;2.10;;
6207;SDS011;3137;51.550;7.060;2022-07-06T07:09:50;2.07;;;2.03;;
6207;SDS011;3137;51.550;7.060;2022-07-06T07:12:17;1.90;;;1.90;;
6207;SDS011;3137;51.550;7.060;2022-07-06T07:14:43;2.30;;;1.93;;
6207;SDS011;3137;51.550;7.060;2022-07-06T07:17:10;2.30;;;2.20;;
6207;SDS011;3137;51.550;7.060;2022-07-06T07:19:37;1.97;;;1.93;;
6207;SDS011;3137;51.550;7.060;2022-07-06T07:22:04;1.90;;;1.70;;
6207;SDS011;3137;51.550;7.060;2022-07-06T07:24:30;2.17;;;1.80;;
6207;SDS011;3137;51.550;7.060;2022-07-06T07:26:57;1.60;;;1.60;;
6207;SDS011;3137;51.550;7.060;2022-07-06T07:29:23;1.63;;;1.60;;
6207;SDS011;3137;51.550;7.060;2022-07-06T07:31:50;2.07;;;1.97;;
6207;SDS011;3137;51.550;7.060;2022-07-06T07:34:16;1.50;;;1.50;;
6207;SDS011;3137;51.550;7.060;2022-07-06T07:36:43;2.03;;;1.87;;
6207;SDS011;3137;51.550;7.060;2022-07-06T07:39:09;1.90;;;1.77;;
6207;SDS011;3137;51.550;7.060;2022-07-06T07:41:36;1.70;;;1.70;;
6207;SDS011;3137;51.550;7.060;2022-07-06T07:44:02;1.60;;;1.60;;
6207;SDS011;3137;51.550;7.060;2022-07-06T07:46:28;2.17;;;2.07;;
6207;SDS011;3137;51.550;7.060;2022-07-06T07:48:55;1.80;;;1.70;;
6207;SDS011;3137;51.550;7.060;2022-07-06T07:51:22;2.10;;;2.03;;
6207;SDS011;3137;51.550;7.060;2022-07-06T07:53:48;2.20;;;2.10;;
6207;SDS011;3137;51.550;7.060;2022-07-06T07:56:15;2.23;;;2.03;;
6207;SDS011;3137;51.550;7.060;2022-07-06T07:58:41;1.80;;;1.80;;
6207;SDS011;3137;51.550;7.060;2022-07-06T08:01:08;1.67;;;1.67;;
6207;SDS011;3137;51.550;7.060;2022-07-06T08:03:35;1.97;;;1.97;;
6207;SDS011;3137;51.550;7.060;2022-07-06T08:06:02;3.17;;;1.77;;
6207;SDS011;3137;51.550;7.060;2022-07-06T08:08:28;3.07;;;1.70;;
6207;SDS011;3137;51.550;7.060;2022-07-06T08:10:55;1.57;;;1.57;;
6207;SDS011;3137;51.550;7.060;2022-07-06T08:13:41;1.60;;;1.60;;
6207;SDS011;3137;51.550;7.060;2022-07-06T08:16:08;1.80;;;1.70;;
6207;SDS011;3137;51.550;7.060;2022-07-06T08:18:36;2.13;;;2.13;;
6207;SDS011;3137;51.550;7.060;2022-07-06T08:21:03;1.87;;;1.77;;
6207;SDS011;3137;51.550;7.060;2022-07-06T08:23:50;2.03;;;1.97;;
6207;SDS011;3137;51.550;7.060;2022-07-06T08:26:16;2.73;;;1.87;;
6207;SDS011;3137;51.550;7.060;2022-07-06T08:28:43;1.77;;;1.67;;
6207;SDS011;3137;51.550;7.060;2022-07-06T08:31:10;2.33;;;2.00;;
6207;SDS011;3137;51.550;7.060;2022-07-06T08:33:56;2.63;;;2.43;;
6207;SDS011;3137;51.550;7.060;2022-07-06T08:36:23;2.03;;;1.97;;
6207;SDS011;3137;51.550;7.060;2022-07-06T08:38:50;2.17;;;2.07;;
6207;SDS011;3137;51.550;7.060;2022-07-06T08:41:16;2.03;;;2.03;;
6207;SDS011;3137;51.550;7.060;2022-07-06T08:43:51;1.70;;;1.70;;
6207;SDS011;3137;51.550;7.060;2022-07-06T08:46:18;1.90;;;1.90;;
6207;SDS011;3137;51.550;7.060;2022-07-06T08:48:45;1.50;;;1.50;;
6207;SDS011;3137;51.550;7.060;2022-07-06T08:51:13;2.80;;;1.60;;
6207;SDS011;3137;51.550;7.060;2022-07-06T08:53:41;1.90;;;1.60;;
6207;SDS011;3137;51.550;7.060;2022-07-06T08:56:08;1.40;;;1.40;;
6207;SDS011;3137;51.550;7.060;2022-07-06T08:58:35;1.90;;;1.80;;
6207;SDS011;3137;51.550;7.060;2022-07-06T09:01:01;1.60;;;1.60;;
6207;SDS011;3137;51.550;7.060;2022-07-06T09:03:28;2.30;;;2.10;;
6207;SDS011;3137;51.550;7.060;2022-07-06T09:05:56;4.73;;;1.93;;
6207;SDS011;3137;51.550;7.060;2022-07-06T09:08:26;1.57;;;1.57;;
6207;SDS011;3137;51.550;7.060;2022-07-06T09:10:53;2.83;;;2.00;;
6207;SDS011;3137;51.550;7.060;2022-07-06T09:13:20;1.50;;;1.50;;
6207;SDS011;3137;51.550;7.060;2022-07-06T09:15:47;1.93;;;1.83;;
6207;SDS011;3137;51.550;7.060;2022-07-06T09:18:13;2.00;;;2.00;;
6207;SDS011;3137;51.550;7.060;2022-07-06T09:20:41;16.43;;;2.07;;
6207;SDS011;3137;51.550;7.060;2022-07-06T09:23:08;2.53;;;1.83;;
6207;SDS011;3137;51.550;7.060;2022-07-06T09:25:42;1.67;;;1.67;;
6207;SDS011;3137;51.550;7.060;2022-07-06T09:28:13;2.07;;;1.97;;
6207;SDS011;3137;51.550;7.060;2022-07-06T09:30:39;1.77;;;1.67;;
6207;SDS011;3137;51.550;7.060;2022-07-06T09:33:08;1.60;;;1.60;;
6207;SDS011;3137;51.550;7.060;2022-07-06T09:35:36;1.27;;;1.27;;
6207;SDS011;3137;51.550;7.060;2022-07-06T09:38:05;1.40;;;1.40;;
6207;SDS011;3137;51.550;7.060;2022-07-06T09:40:34;7.20;;;2.27;;
6207;SDS011;3137;51.550;7.060;2022-07-06T09:43:09;2.13;;;1.93;;
6207;SDS011;3137;51.550;7.060;2022-07-06T09:45:37;2.73;;;2.53;;
6207;SDS011;3137;51.550;7.060;2022-07-06T09:48:06;2.10;;;1.90;;
6207;SDS011;3137;51.550;7.060;2022-07-06T09:50:43;2.03;;;1.93;;
6207;SDS011;3137;51.550;7.060;2022-07-06T09:53:10;1.77;;;1.67;;
6207;SDS011;3137;51.550;7.060;2022-07-06T09:55:38;1.77;;;1.67;;
6207;SDS011;3137;51.550;7.060;2022-07-06T09:58:04;2.00;;;1.90;;
6207;SDS011;3137;51.550;7.060;2022-07-06T10:00:31;1.73;;;1.73;;
6207;SDS011;3137;51.550;7.060;2022-07-06T10:02:57;1.57;;;1.57;;
6207;SDS011;3137;51.550;7.060;2022-07-06T10:05:23;1.67;;;1.60;;
6207;SDS011;3137;51.550;7.060;2022-07-06T10:08:01;1.93;;;1.80;;
6207;SDS011;3137;51.550;7.060;2022-07-06T10:10:28;1.70;;;1.70;;
6207;SDS011;3137;51.550;7.060;2022-07-06T10:12:55;3.13;;;1.93;;
6207;SDS011;3137;51.550;7.060;2022-07-06T10:15:24;1.33;;;1.33;;
6207;SDS011;3137;51.550;7.060;2022-07-06T10:17:53;1.67;;;1.57;;
6207;SDS011;3137;51.550;7.060;2022-07-06T10:20:20;1.37;;;1.37;;
6207;SDS011;3137;51.550;7.060;2022-07-06T10:22:47;1.33;;;1.30;;
6207;SDS011;3137;51.550;7.060;2022-07-06T10:25:15;1.87;;;1.80;;
6207;SDS011;3137;51.550;7.060;2022-07-06T10:27:43;1.80;;;1.80;;
6207;SDS011;3137;51.550;7.060;2022-07-06T10:30:10;1.93;;;1.83;;
6207;SDS011;3137;51.550;7.060;2022-07-06T10:32:38;2.27;;;2.27;;
6207;SDS011;3137;51.550;7.060;2022-07-06T10:35:07;1.43;;;1.43;;
6207;SDS011;3137;51.550;7.060;2022-07-06T10:37:33;1.70;;;1.70;;
6207;SDS011;3137;51.550;7.060;2022-07-06T10:40:14;1.73;;;1.73;;
6207;SDS011;3137;51.550;7.060;2022-07-06T10:43:00;1.57;;;1.47;;
6207;SDS011;3137;51.550;7.060;2022-07-06T10:50:39;1.87;;;1.60;;
6207;SDS011;3137;51.550;7.060;2022-07-06T10:53:10;1.50;;;1.50;;
6207;SDS011;3137;51.550;7.060;2022-07-06T10:55:39;1.67;;;1.67;;
6207;SDS011;3137;51.550;7.060;2022-07-06T10:58:06;1.93;;;1.73;;
6207;SDS011;3137;51.550;7.060;2022-07-06T11:00:47;2.03;;;1.90;;
6207;SDS011;3137;51.550;7.060;2022-07-06T11:03:34;1.53;;;1.53;;
6207;SDS011;3137;51.550;7.060;2022-07-06T11:06:01;1.60;;;1.60;;
6207;SDS011;3137;51.550;7.060;2022-07-06T11:13:56;1.10;;;1.10;;
6207;SDS011;3137;51.550;7.060;2022-07-06T11:19:11;4.53;;;1.60;;
6207;SDS011;3137;51.550;7.060;2022-07-06T11:21:39;1.37;;;1.37;;
6207;SDS011;3137;51.550;7.060;2022-07-06T11:24:10;3.33;;;1.50;;
6207;SDS011;3137;51.550;7.060;2022-07-06T11:26:38;1.60;;;1.60;;
6207;SDS011;3137;51.550;7.060;2022-07-06T11:29:07;2.60;;;1.63;;
6207;SDS011;3137;51.550;7.060;2022-07-06T11:31:35;1.73;;;1.73;;
6207;SDS011;3137;51.550;7.060;2022-07-06T11:34:03;1.40;;;1.40;;
6207;SDS011;3137;51.550;7.060;2022-07-06T11:36:30;4.57;;;1.40;;
6207;SDS011;3137;51.550;7.060;2022-07-06T11:39:03;1.37;;;1.30;;
6207;SDS011;3137;51.550;7.060;2022-07-06T11:41:31;1.80;;;1.67;;
6207;SDS011;3137;51.550;7.060;2022-07-06T11:43:58;2.67;;;1.67;;
6207;SDS011;3137;51.550;7.060;2022-07-06T11:46:28;1.90;;;1.90;;
6207;SDS011;3137;51.550;7.060;2022-07-06T11:48:56;1.70;;;1.70;;
6207;SDS011;3137;51.550;7.060;2022-07-06T11:51:24;1.67;;;1.60;;
6207;SDS011;3137;51.550;7.060;2022-07-06T11:53:53;1.20;;;1.20;;
6207;SDS011;3137;51.550;7.060;2022-07-06T11:56:21;1.77;;;1.77;;
6207;SDS011;3137;51.550;7.060;2022-07-06T11:58:52;1.77;;;1.40;;
6207;SDS011;3137;51.550;7.060;2022-07-06T12:01:18;1.27;;;1.27;;
6207;SDS011;3137;51.550;7.060;2022-07-06T12:03:45;2.20;;;1.57;;
6207;SDS011;3137;51.550;7.060;2022-07-06T12:06:13;1.60;;;1.60;;
6207;SDS011;3137;51.550;7.060;2022-07-06T12:08:50;1.33;;;1.33;;
6207;SDS011;3137;51.550;7.060;2022-07-06T12:11:22;1.47;;;1.47;;
6207;SDS011;3137;51.550;7.060;2022-07-06T12:13:51;2.50;;;1.60;;
6207;SDS011;3137;51.550;7.060;2022-07-06T12:16:20;1.60;;;1.60;;
6207;SDS011;3137;51.550;7.060;2022-07-06T12:18:49;8.23;;;1.80;;
6207;SDS011;3137;51.550;7.060;2022-07-06T12:21:19;1.70;;;1.67;;
6207;SDS011;3137;51.550;7.060;2022-07-06T12:23:48;2.03;;;2.03;;
6207;SDS011;3137;51.550;7.060;2022-07-06T12:26:16;1.97;;;1.97;;
6207;SDS011;3137;51.550;7.060;2022-07-06T12:28:43;2.00;;;1.90;;
6207;SDS011;3137;51.550;7.060;2022-07-06T12:31:10;2.60;;;2.27;;
6207;SDS011;3137;51.550;7.060;2022-07-06T12:33:37;1.70;;;1.70;;
6207;SDS011;3137;51.550;7.060;2022-07-06T12:36:13;2.07;;;1.97;;
6207;SDS011;3137;51.550;7.060;2022-07-06T12:38:45;1.20;;;1.20;;
6207;SDS011;3137;51.550;7.060;2022-07-06T12:41:24;2.60;;;1.93;;
6207;SDS011;3137;51.550;7.060;2022-07-06T12:43:59;1.70;;;1.70;;
6207;SDS011;3137;51.550;7.060;2022-07-06T12:46:31;1.73;;;1.73;;
6207;SDS011;3137;51.550;7.060;2022-07-06T12:49:00;5.17;;;1.67;;
6207;SDS011;3137;51.550;7.060;2022-07-06T12:51:47;2.10;;;2.10;;
6207;SDS011;3137;51.550;7.060;2022-07-06T12:54:18;3.43;;;2.00;;
6207;SDS011;3137;51.550;7.060;2022-07-06T12:57:01;1.53;;;1.53;;
6207;SDS011;3137;51.550;7.060;2022-07-06T12:59:30;4.73;;;1.67;;
6207;SDS011;3137;51.550;7.060;2022-07-06T13:01:57;1.60;;;1.50;;
6207;SDS011;3137;51.550;7.060;2022-07-06T13:04:24;1.40;;;1.30;;
6207;SDS011;3137;51.550;7.060;2022-07-06T13:06:51;6.83;;;1.80;;
6207;SDS011;3137;51.550;7.060;2022-07-06T13:09:18;2.00;;;1.27;;
6207;SDS011;3137;51.550;7.060;2022-07-06T13:11:45;1.97;;;1.77;;
6207;SDS011;3137;51.550;7.060;2022-07-06T13:14:13;3.13;;;1.70;;
6207;SDS011;3137;51.550;7.060;2022-07-06T13:16:40;4.00;;;1.33;;
6207;SDS011;3137;51.550;7.060;2022-07-06T13:19:06;1.63;;;1.07;;
6207;SDS011;3137;51.550;7.060;2022-07-06T13:21:33;1.07;;;1.07;;
6207;SDS011;3137;51.550;7.060;2022-07-06T13:23:59;1.67;;;1.67;;
6207;SDS011;3137;51.550;7.060;2022-07-06T13:26:26;1.70;;;1.70;;
6207;SDS011;3137;51.550;7.060;2022-07-06T13:28:52;1.93;;;1.50;;
6207;SDS011;3137;51.550;7.060;2022-07-06T13:31:19;1.03;;;1.03;;
6207;SDS011;3137;51.550;7.060;2022-07-06T13:33:45;1.43;;;1.43;;
6207;SDS011;3137;51.550;7.060;2022-07-06T13:36:12;1.37;;;1.37;;
6207;SDS011;3137;51.550;7.060;2022-07-06T13:38:38;1.27;;;1.27;;
6207;SDS011;3137;51.550;7.060;2022-07-06T13:41:04;1.60;;;1.60;;
6207;SDS011;3137;51.550;7.060;2022-07-06T13:43:32;1.50;;;1.40;;
6207;SDS011;3137;51.550;7.060;2022-07-06T13:46:05;1.57;;;1.50;;
6207;SDS011;3137;51.550;7.060;2022-07-06T13:48:33;1.57;;;1.57;;
6207;SDS011;3137;51.550;7.060;2022-07-06T13:51:00;3.83;;;1.57;;
6207;SDS011;3137;51.550;7.060;2022-07-06T13:53:26;1.33;;;1.33;;
6207;SDS011;3137;51.550;7.060;2022-07-06T13:55:54;1.07;;;1.07;;
6207;SDS011;3137;51.550;7.060;2022-07-06T13:58:20;1.23;;;1.23;;
6207;SDS011;3137;51.550;7.060;2022-07-06T14:00:47;3.53;;;1.33;;
6207;SDS011;3137;51.550;7.060;2022-07-06T14:03:13;1.30;;;1.30;;
6207;SDS011;3137;51.550;7.060;2022-07-06T14:05:40;1.60;;;1.60;;
6207;SDS011;3137;51.550;7.060;2022-07-06T14:08:06;1.60;;;1.60;;
6207;SDS011;3137;51.550;7.060;2022-07-06T14:10:33;1.27;;;1.27;;
6207;SDS011;3137;51.550;7.060;2022-07-06T14:13:00;2.20;;;1.40;;
6207;SDS011;3137;51.550;7.060;2022-07-06T14:15:26;2.10;;;1.50;;
6207;SDS011;3137;51.550;7.060;2022-07-06T14:17:52;1.20;;;1.20;;
6207;SDS011;3137;51.550;7.060;2022-07-06T14:20:19;1.30;;;1.30;;
6207;SDS011;3137;51.550;7.060;2022-07-06T14:22:45;1.50;;;1.50;;
6207;SDS011;3137;51.550;7.060;2022-07-06T14:25:12;1.10;;;1.10;;
6207;SDS011;3137;51.550;7.060;2022-07-06T14:27:38;10.27;;;1.47;;
6207;SDS011;3137;51.550;7.060;2022-07-06T14:30:06;2.80;;;1.50;;
6207;SDS011;3137;51.550;7.060;2022-07-06T14:32:33;1.37;;;1.30;;
6207;SDS011;3137;51.550;7.060;2022-07-06T14:34:59;1.20;;;1.20;;
6207;SDS011;3137;51.550;7.060;2022-07-06T14:37:26;1.33;;;1.33;;
6207;SDS011;3137;51.550;7.060;2022-07-06T14:39:52;1.40;;;1.30;;
6207;SDS011;3137;51.550;7.060;2022-07-06T14:42:19;1.20;;;1.20;;
6207;SDS011;3137;51.550;7.060;2022-07-06T14:44:45;5.20;;;1.83;;
6207;SDS011;3137;51.550;7.060;2022-07-06T14:47:11;2.13;;;1.70;;
6207;SDS011;3137;51.550;7.060;2022-07-06T14:49:37;1.40;;;1.40;;
6207;SDS011;3137;51.550;7.060;2022-07-06T14:52:04;1.57;;;1.57;;
6207;SDS011;3137;51.550;7.060;2022-07-06T14:54:31;2.67;;;1.87;;
6207;SDS011;3137;51.550;7.060;2022-07-06T14:56:57;1.07;;;1.07;;
6207;SDS011;3137;51.550;7.060;2022-07-06T14:59:23;1.50;;;1.40;;
6207;SDS011;3137;51.550;7.060;2022-07-06T15:01:51;1.23;;;1.23;;
6207;SDS011;3137;51.550;7.060;2022-07-06T15:04:19;1.50;;;1.50;;
6207;SDS011;3137;51.550;7.060;2022-07-06T15:06:45;1.33;;;1.33;;
6207;SDS011;3137;51.550;7.060;2022-07-06T15:09:22;1.53;;;1.43;;
6207;SDS011;3137;51.550;7.060;2022-07-06T15:11:48;1.40;;;1.40;;
6207;SDS011;3137;51.550;7.060;2022-07-06T15:14:15;1.40;;;1.40;;
6207;SDS011;3137;51.550;7.060;2022-07-06T15:16:42;1.27;;;1.27;;
6207;SDS011;3137;51.550;7.060;2022-07-06T15:19:10;1.50;;;1.50;;
6207;SDS011;3137;51.550;7.060;2022-07-06T15:21:37;1.23;;;1.23;;
6207;SDS011;3137;51.550;7.060;2022-07-06T15:24:03;1.47;;;1.47;;
6207;SDS011;3137;51.550;7.060;2022-07-06T15:26:30;1.10;;;1.10;;
6207;SDS011;3137;51.550;7.060;2022-07-06T15:28:58;1.40;;;1.40;;
6207;SDS011;3137;51.550;7.060;2022-07-06T15:31:24;3.43;;;1.30;;
6207;SDS011;3137;51.550;7.060;2022-07-06T15:33:50;1.40;;;1.40;;
6207;SDS011;3137;51.550;7.060;2022-07-06T15:36:17;1.30;;;1.30;;